Time;durP1;ratioP1;P1;durP2;ratioP2;P2;SDS_P1;SDS_P2;PMS_P1;PMS_P2;Temp;Humidity;BMP_temperature;BMP_pressure;BME280_temperature;BME280_humidity;BME280_pressure;Samples;Min_cycle;Max_cycle;Signal;HPM_P1;HPM_P2
2023/05/06 00:00:05;;;;;;;10.20;8.97;;;12.30;99.90;;;;;;5094572;28;20169;-66
2023/05/06 00:02:31;;;;;;;10.83;8.33;;;12.30;99.90;;;;;;5080631;28;20174;-66
2023/05/06 00:04:57;;;;;;;13.70;9.07;;;12.20;99.90;;;;;;5074473;28;20249;-65
2023/05/06 00:07:22;;;;;;;16.90;10.50;;;12.20;99.90;;;;;;5074698;28;20194;-66
2023/05/06 00:09:48;;;;;;;9.50;8.37;;;12.20;99.90;;;;;;5074078;28;20302;-66
2023/05/06 00:12:14;;;;;;;11.27;9.97;;;12.20;99.90;;;;;;5084835;28;20185;-66
2023/05/06 00:14:40;;;;;;;12.57;9.13;;;12.20;99.90;;;;;;5089170;28;20208;-66
2023/05/06 00:17:05;;;;;;;11.13;8.93;;;12.10;99.90;;;;;;5074498;28;20217;-66
2023/05/06 00:19:31;;;;;;;9.97;8.97;;;12.10;99.90;;;;;;5080333;28;20178;-66
2023/05/06 00:21:57;;;;;;;10.93;9.80;;;12.00;99.90;;;;;;5094419;28;20369;-66
2023/05/06 00:24:23;;;;;;;11.10;8.73;;;12.00;99.90;;;;;;5089327;28;20184;-66
2023/05/06 00:26:49;;;;;;;14.73;9.50;;;11.90;99.90;;;;;;5074033;28;20920;-66
2023/05/06 00:29:15;;;;;;;11.73;9.47;;;11.90;99.90;;;;;;5077016;28;20646;-65
2023/05/06 00:31:40;;;;;;;11.90;9.10;;;11.80;99.90;;;;;;5094333;28;20174;-66
2023/05/06 00:34:06;;;;;;;11.53;9.00;;;11.80;99.90;;;;;;5092281;28;20208;-66
2023/05/06 00:36:32;;;;;;;14.10;8.33;;;11.70;99.90;;;;;;5074061;28;20280;-66
2023/05/06 00:38:57;;;;;;;10.40;9.17;;;11.60;99.90;;;;;;5091937;28;20228;-66
2023/05/06 00:41:23;;;;;;;11.60;8.70;;;11.60;99.90;;;;;;5094110;28;20707;-66
2023/05/06 00:43:48;;;;;;;13.40;10.40;;;11.50;99.90;;;;;;5077262;28;20552;-66
2023/05/06 00:46:16;;;;;;;10.90;9.10;;;11.50;99.90;;;;;;5073914;28;20189;-65
2023/05/06 00:48:43;;;;;;;11.43;9.13;;;11.40;99.90;;;;;;5088205;28;20174;-66
2023/05/06 00:51:09;;;;;;;13.67;9.10;;;11.40;99.90;;;;;;5089728;28;20212;-66
2023/05/06 00:53:35;;;;;;;16.00;10.50;;;11.30;99.90;;;;;;5072334;28;20170;-66
2023/05/06 00:56:01;;;;;;;12.17;9.37;;;11.30;99.90;;;;;;5075164;28;20198;-66
2023/05/06 00:58:26;;;;;;;18.57;10.73;;;11.30;99.90;;;;;;5094334;28;20165;-66
2023/05/06 01:00:52;;;;;;;12.27;10.97;;;11.20;99.90;;;;;;5093243;28;20650;-65
2023/05/06 01:03:18;;;;;;;12.87;11.67;;;11.30;99.90;;;;;;5073624;28;20255;-66
2023/05/06 01:05:52;;;;;;;9.97;9.00;;;11.20;99.90;;;;;;5073438;28;20190;-66
2023/05/06 01:08:33;;;;;;;13.67;10.10;;;11.20;99.90;;;;;;5073396;28;20186;-65
2023/05/06 01:11:23;;;;;;;12.20;9.73;;;11.20;99.90;;;;;;5073909;28;20185;-66
2023/05/06 01:14:01;;;;;;;11.30;9.23;;;11.10;99.90;;;;;;5073049;28;20240;-66
2023/05/06 01:16:29;;;;;;;11.30;9.90;;;11.00;99.90;;;;;;5079797;28;20195;-66
2023/05/06 01:18:58;;;;;;;12.13;9.63;;;11.00;99.90;;;;;;5089128;28;20640;-66
2023/05/06 01:21:33;;;;;;;13.63;10.27;;;11.00;99.90;;;;;;5072933;28;20300;-66
2023/05/06 01:23:59;;;;;;;10.23;8.90;;;11.00;99.90;;;;;;5076470;28;20184;-66
2023/05/06 01:26:25;;;;;;;11.03;9.97;;;11.00;99.90;;;;;;5093904;28;20201;-66
2023/05/06 01:28:52;;;;;;;12.93;10.27;;;10.90;99.90;;;;;;5090881;28;20177;-66
2023/05/06 01:31:23;;;;;;;14.73;10.97;;;10.80;99.90;;;;;;5072515;28;20166;-66
2023/05/06 01:34:13;;;;;;;12.73;10.80;;;10.90;99.90;;;;;;5073710;28;20664;-66
2023/05/06 01:37:02;;;;;;;11.03;9.90;;;11.00;99.90;;;;;;5093088;28;20238;-66
2023/05/06 01:39:30;;;;;;;12.90;10.50;;;11.00;99.90;;;;;;5086763;28;20532;-66
2023/05/06 01:41:59;;;;;;;12.87;11.07;;;11.00;99.90;;;;;;5072643;28;20725;-66
2023/05/06 01:44:27;;;;;;;13.73;11.90;;;11.00;99.90;;;;;;5077678;28;20182;-66
2023/05/06 01:46:55;;;;;;;12.00;9.23;;;11.00;99.90;;;;;;5092647;28;20188;-66
2023/05/06 01:49:22;;;;;;;15.57;9.77;;;11.10;99.90;;;;;;5088439;28;20196;-66
2023/05/06 01:51:50;;;;;;;13.83;10.20;;;11.10;99.90;;;;;;5071173;28;20173;-66
2023/05/06 01:54:16;;;;;;;13.60;10.27;;;11.10;99.90;;;;;;5075006;28;20194;-66
2023/05/06 01:56:42;;;;;;;12.20;10.07;;;11.10;99.90;;;;;;5092681;28;20391;-66
2023/05/06 01:59:07;;;;;;;12.67;10.43;;;11.10;99.90;;;;;;5090991;28;20244;-67
2023/05/06 02:01:33;;;;;;;11.10;9.63;;;11.00;99.90;;;;;;5072562;28;20613;-66
2023/05/06 02:03:58;;;;;;;15.00;9.90;;;11.00;99.90;;;;;;5080657;28;20414;-66
2023/05/06 02:06:24;;;;;;;11.07;9.80;;;11.00;99.90;;;;;;5092610;28;20712;-65
2023/05/06 02:08:51;;;;;;;12.47;9.83;;;11.00;99.90;;;;;;5084118;28;20174;-66
2023/05/06 02:11:17;;;;;;;9.30;8.40;;;11.00;99.90;;;;;;5071830;28;20537;-66
2023/05/06 02:13:43;;;;;;;10.67;9.47;;;10.90;99.90;;;;;;5082263;28;20200;-66
2023/05/06 02:16:09;;;;;;;10.37;8.30;;;10.90;99.90;;;;;;5092387;28;20197;-66
2023/05/06 02:18:35;;;;;;;10.90;9.43;;;10.90;99.90;;;;;;5082384;28;20174;-66
2023/05/06 02:21:01;;;;;;;8.63;7.90;;;10.80;99.90;;;;;;5071492;28;20174;-67
2023/05/06 02:23:26;;;;;;;9.43;8.47;;;10.90;99.90;;;;;;5079131;28;20174;-66
2023/05/06 02:25:52;;;;;;;9.87;9.07;;;10.90;99.90;;;;;;5092056;28;20197;-66
2023/05/06 02:28:18;;;;;;;9.17;8.40;;;10.80;99.90;;;;;;5086282;28;20175;-66
2023/05/06 02:30:43;;;;;;;9.37;8.60;;;10.80;99.90;;;;;;5073072;28;20166;-65
2023/05/06 02:33:09;;;;;;;10.07;9.17;;;10.80;99.90;;;;;;5092075;28;20577;-65
2023/05/06 02:35:35;;;;;;;9.67;8.87;;;10.80;99.90;;;;;;5091762;28;20201;-66
2023/05/06 02:38:00;;;;;;;9.40;8.60;;;10.80;99.90;;;;;;5071836;28;20174;-66
2023/05/06 02:40:26;;;;;;;9.93;8.83;;;10.70;99.90;;;;;;5071408;28;20585;-66
2023/05/06 02:42:52;;;;;;;9.17;8.37;;;10.60;99.90;;;;;;5089717;28;20177;-65
2023/05/06 02:45:17;;;;;;;10.03;9.17;;;10.60;99.90;;;;;;5082144;28;20202;-66
2023/05/06 02:47:43;;;;;;;9.03;8.13;;;10.50;99.90;;;;;;5071528;28;20177;-66
2023/05/06 02:50:09;;;;;;;10.00;8.67;;;10.50;99.90;;;;;;5078412;28;20208;-66
2023/05/06 02:52:34;;;;;;;10.40;9.37;;;10.40;99.90;;;;;;5092094;28;20532;-66
2023/05/06 02:55:01;;;;;;;11.63;9.23;;;10.40;99.90;;;;;;5085463;28;20690;-66
2023/05/06 02:57:26;;;;;;;10.90;9.23;;;10.40;99.90;;;;;;5071451;28;20170;-66
2023/05/06 02:59:52;;;;;;;12.23;8.73;;;10.30;99.90;;;;;;5084300;28;20184;-66
2023/05/06 03:02:17;;;;;;;11.87;9.47;;;10.30;99.90;;;;;;5091651;28;20174;-66
2023/05/06 03:04:43;;;;;;;11.67;8.67;;;10.30;99.90;;;;;;5079434;28;20231;-66
2023/05/06 03:07:09;;;;;;;9.70;7.40;;;10.30;99.90;;;;;;5071214;28;20188;-66
2023/05/06 03:09:34;;;;;;;8.37;7.57;;;10.30;99.90;;;;;;5081043;28;20200;-66
2023/05/06 03:12:01;;;;;;;8.20;7.40;;;10.20;99.90;;;;;;5091378;28;20192;-65
2023/05/06 03:14:26;;;;;;;9.93;8.67;;;10.20;99.90;;;;;;5082845;28;20292;-66
2023/05/06 03:16:52;;;;;;;8.53;7.50;;;10.30;99.90;;;;;;5071320;28;20602;-65
2023/05/06 03:19:17;;;;;;;8.30;7.50;;;10.20;99.90;;;;;;5075373;28;20188;-66
2023/05/06 03:21:43;;;;;;;7.20;6.70;;;10.10;99.90;;;;;;5091248;28;20173;-66
2023/05/06 03:24:09;;;;;;;10.30;7.77;;;10.00;99.90;;;;;;5089676;28;20212;-65
2023/05/06 03:26:34;;;;;;;8.07;7.27;;;10.00;99.90;;;;;;5091345;28;20195;-66
2023/05/06 03:29:00;;;;;;;7.70;7.00;;;9.90;99.90;;;;;;5087952;28;20189;-66
2023/05/06 03:31:26;;;;;;;7.53;6.70;;;9.80;99.90;;;;;;5074028;28;20245;-66
2023/05/06 03:33:51;;;;;;;8.50;7.73;;;9.70;99.90;;;;;;5075916;28;20189;-66
2023/05/06 03:36:17;;;;;;;8.43;7.70;;;9.70;99.90;;;;;;5095505;28;20685;-66
2023/05/06 03:38:42;;;;;;;7.43;6.83;;;9.70;99.90;;;;;;5095519;28;20176;-66
2023/05/06 03:41:08;;;;;;;7.83;7.03;;;9.70;99.90;;;;;;5075165;28;20189;-66
2023/05/06 03:43:34;;;;;;;8.27;7.57;;;9.60;99.90;;;;;;5075388;28;20177;-66
2023/05/06 03:46:00;;;;;;;8.20;7.40;;;9.60;99.90;;;;;;5090565;28;20193;-66
2023/05/06 03:48:26;;;;;;;8.47;7.67;;;9.60;99.90;;;;;;5095252;28;20306;-66
2023/05/06 03:50:51;;;;;;;7.97;7.30;;;9.60;99.90;;;;;;5093110;28;20298;-66
2023/05/06 03:53:18;;;;;;;9.33;7.73;;;9.60;99.90;;;;;;5095048;28;20177;-66
2023/05/06 03:55:43;;;;;;;7.27;6.70;;;9.60;99.90;;;;;;5078992;28;20695;-66
2023/05/06 03:58:10;;;;;;;8.47;7.87;;;9.60;99.90;;;;;;5074813;28;20173;-66
2023/05/06 04:00:35;;;;;;;8.93;8.13;;;9.60;99.90;;;;;;5087160;28;20182;-66
2023/05/06 04:03:01;;;;;;;7.70;7.10;;;9.50;99.90;;;;;;5094799;28;20661;-66
2023/05/06 04:05:26;;;;;;;10.53;7.90;;;9.60;99.90;;;;;;5083723;28;20216;-66
2023/05/06 04:07:53;;;;;;;10.23;9.37;;;9.50;99.90;;;;;;5074511;28;20192;-66
2023/05/06 04:10:19;;;;;;;8.93;8.00;;;9.60;99.90;;;;;;5083457;28;20173;-66
2023/05/06 04:12:44;;;;;;;9.03;8.07;;;9.60;99.90;;;;;;5088817;28;20174;-66
2023/05/06 04:15:11;;;;;;;8.83;7.93;;;9.60;99.90;;;;;;5074178;28;20272;-65
2023/05/06 04:17:37;;;;;;;11.27;7.97;;;9.60;99.90;;;;;;5085084;28;20181;-66
2023/05/06 04:20:03;;;;;;;9.03;8.17;;;9.60;99.90;;;;;;5094188;28;20248;-66
2023/05/06 04:22:31;;;;;;;8.53;7.83;;;9.60;99.90;;;;;;5084888;28;20179;-66
2023/05/06 04:24:59;;;;;;;10.43;8.10;;;9.70;99.90;;;;;;5074115;28;20178;-66
2023/05/06 04:27:26;;;;;;;11.57;8.53;;;9.80;99.90;;;;;;5081940;28;20651;-66
2023/05/06 04:29:52;;;;;;;12.73;10.87;;;9.90;99.90;;;;;;5093993;28;20516;-66
2023/05/06 04:32:18;;;;;;;10.87;9.80;;;10.00;99.90;;;;;;5087710;28;20193;-66
2023/05/06 04:34:46;;;;;;;10.07;9.07;;;10.10;99.90;;;;;;5074103;28;20221;-66
2023/05/06 04:37:12;;;;;;;9.50;7.53;;;10.20;99.90;;;;;;5078805;28;20170;-66
2023/05/06 04:39:38;;;;;;;10.87;9.87;;;10.30;99.90;;;;;;5093991;28;20169;-66
2023/05/06 04:42:04;;;;;;;9.33;8.43;;;10.40;99.90;;;;;;5089787;28;20178;-66
2023/05/06 04:44:29;;;;;;;10.07;8.90;;;10.50;99.90;;;;;;5073984;28;20651;-65
2023/05/06 04:46:55;;;;;;;9.47;8.57;;;10.60;99.90;;;;;;5075267;28;20201;-65
2023/05/06 04:49:21;;;;;;;8.43;7.63;;;10.70;99.90;;;;;;5093741;28;20166;-66
2023/05/06 04:51:46;;;;;;;10.10;9.30;;;10.80;99.90;;;;;;5092494;28;20203;-66
2023/05/06 04:54:12;;;;;;;9.27;8.47;;;10.90;99.90;;;;;;5073777;28;20209;-66
2023/05/06 04:56:37;;;;;;;10.50;8.27;;;11.00;99.90;;;;;;5073720;28;20201;-66
2023/05/06 04:59:03;;;;;;;8.80;8.00;;;11.10;99.90;;;;;;5091636;28;20178;-66
2023/05/06 05:01:28;;;;;;;9.07;8.23;;;11.10;99.90;;;;;;5093618;28;20166;-66
2023/05/06 05:03:54;;;;;;;8.63;7.80;;;11.20;99.90;;;;;;5076927;28;20186;-66
2023/05/06 05:06:20;;;;;;;8.60;7.87;;;11.20;99.90;;;;;;5072243;28;20198;-66
2023/05/06 05:08:45;;;;;;;8.93;8.13;;;11.30;99.90;;;;;;5074582;28;20583;-66
2023/05/06 05:11:11;;;;;;;8.43;7.63;;;11.30;99.90;;;;;;5073066;28;20174;-66
2023/05/06 05:13:36;;;;;;;7.73;7.10;;;11.30;99.90;;;;;;5086093;28;20657;-66
2023/05/06 05:16:02;;;;;;;8.10;7.40;;;11.20;99.90;;;;;;5093492;28;20185;-66
2023/05/06 05:18:28;;;;;;;10.77;8.17;;;11.10;99.90;;;;;;5082077;28;20178;-66
2023/05/06 05:20:53;;;;;;;8.40;7.80;;;11.10;99.90;;;;;;5072928;28;20163;-66
2023/05/06 05:23:19;;;;;;;9.20;8.50;;;11.10;99.90;;;;;;5082500;28;20188;-66
2023/05/06 05:25:45;;;;;;;8.83;8.07;;;11.10;99.90;;;;;;5093268;28;20189;-66
2023/05/06 05:28:10;;;;;;;9.17;7.40;;;11.10;99.90;;;;;;5085434;28;20678;-66
2023/05/06 05:30:36;;;;;;;9.03;8.07;;;11.10;99.90;;;;;;5072847;28;20285;-66
2023/05/06 05:33:02;;;;;;;8.97;8.07;;;11.10;99.90;;;;;;5072774;28;20205;-66
2023/05/06 05:35:27;;;;;;;9.60;7.83;;;11.20;99.90;;;;;;5072797;28;20198;-66
2023/05/06 05:37:53;;;;;;;8.40;7.70;;;11.40;99.90;;;;;;5076722;28;20166;-66
2023/05/06 05:40:19;;;;;;;8.30;7.60;;;11.50;99.90;;;;;;5092934;28;20173;-66
2023/05/06 05:42:45;;;;;;;8.30;7.53;;;11.60;99.90;;;;;;5090250;28;20307;-66
2023/05/06 05:45:10;;;;;;;8.53;7.67;;;11.80;99.90;;;;;;5072603;28;20675;-66
2023/05/06 05:47:36;;;;;;;10.37;8.33;;;11.90;99.90;;;;;;5073283;28;20171;-66
2023/05/06 05:50:02;;;;;;;9.73;8.83;;;12.20;99.90;;;;;;5072868;28;20210;-66
2023/05/06 05:52:28;;;;;;;9.70;8.73;;;12.50;99.90;;;;;;5090698;28;20260;-66
2023/05/06 05:54:53;;;;;;;9.37;8.50;;;12.80;99.90;;;;;;5090987;28;20745;-66
2023/05/06 05:57:19;;;;;;;8.30;7.63;;;13.00;99.90;;;;;;5091292;28;20177;-65
2023/05/06 05:59:45;;;;;;;9.80;8.17;;;13.10;99.90;;;;;;5074479;28;20257;-66
2023/05/06 06:02:10;;;;;;;8.27;7.47;;;13.20;99.90;;;;;;5084419;28;20201;-66
2023/05/06 06:04:36;;;;;;;8.23;7.40;;;13.30;99.90;;;;;;5072365;28;20631;-66
2023/05/06 06:07:01;;;;;;;9.50;8.50;;;13.60;99.90;;;;;;5079069;28;20677;-66
2023/05/06 06:09:27;;;;;;;8.63;7.93;;;13.90;99.90;;;;;;5092040;28;20177;-66
2023/05/06 06:11:53;;;;;;;8.00;7.30;;;14.30;99.90;;;;;;5082492;28;20175;-66
2023/05/06 06:14:19;;;;;;;9.17;8.27;;;14.80;99.90;;;;;;5071401;28;20202;-66
2023/05/06 06:16:44;;;;;;;9.27;8.43;;;15.10;99.90;;;;;;5072456;28;20243;-66
2023/05/06 06:19:10;;;;;;;8.07;7.27;;;15.30;99.90;;;;;;5071754;28;20257;-66
2023/05/06 06:21:35;;;;;;;9.00;8.23;;;15.60;99.90;;;;;;5072653;28;20204;-66
2023/05/06 06:24:01;;;;;;;9.13;8.23;;;15.90;99.90;;;;;;5072141;28;20185;-66
2023/05/06 06:26:27;;;;;;;8.80;8.07;;;16.00;99.90;;;;;;5072000;28;20197;-66
2023/05/06 06:28:52;;;;;;;9.47;8.67;;;16.30;99.90;;;;;;5072927;28;20189;-66
2023/05/06 06:31:18;;;;;;;8.33;7.53;;;16.50;99.90;;;;;;5071480;28;20197;-66
2023/05/06 06:33:43;;;;;;;8.10;7.50;;;16.70;99.90;;;;;;5075969;28;20170;-66
2023/05/06 06:36:10;;;;;;;7.57;7.03;;;16.80;99.90;;;;;;5092209;28;20203;-66
2023/05/06 06:38:35;;;;;;;8.17;7.43;;;16.80;99.90;;;;;;5091105;28;20215;-66
2023/05/06 06:41:01;;;;;;;7.23;6.73;;;17.00;99.90;;;;;;5091629;28;20259;-66
2023/05/06 06:43:26;;;;;;;7.63;7.00;;;17.20;99.90;;;;;;5091281;28;20181;-66
2023/05/06 06:45:52;;;;;;;7.43;6.83;;;17.50;99.90;;;;;;5091628;28;20193;-66
2023/05/06 06:48:18;;;;;;;6.60;6.10;;;17.90;99.90;;;;;;5089960;28;20280;-66
2023/05/06 06:50:44;;;;;;;7.17;6.57;;;18.30;99.90;;;;;;5090973;28;20239;-66
2023/05/06 06:53:10;;;;;;;9.70;9.10;;;18.70;99.90;;;;;;5089656;28;20185;-65
2023/05/06 06:55:35;;;;;;;7.57;7.07;;;19.00;99.90;;;;;;5090305;28;20286;-66
2023/05/06 06:58:01;;;;;;;12.80;12.10;;;19.40;99.90;;;;;;5090074;28;20196;-66
2023/05/06 07:00:27;;;;;;;12.77;11.98;;;19.90;99.90;;;;;;5091473;28;20643;-66
2023/05/06 07:02:53;;;;;;;6.68;6.25;;;20.40;99.90;;;;;;5080763;28;20162;-66
2023/05/06 07:05:19;;;;;;;11.73;11.02;;;20.70;99.90;;;;;;5071175;28;20197;-66
2023/05/06 07:07:44;;;;;;;13.90;13.20;;;21.10;99.90;;;;;;5084665;28;20182;-66
2023/05/06 07:10:10;;;;;;;6.72;6.25;;;21.60;99.90;;;;;;5091036;28;20633;-66
2023/05/06 07:12:36;;;;;;;7.95;7.45;;;21.80;99.90;;;;;;5079966;28;20264;-66
2023/05/06 07:15:05;;;;;;;6.65;6.25;;;22.00;99.90;;;;;;5069741;28;20206;-66
2023/05/06 07:17:32;;;;;;;5.95;5.55;;;22.20;99.90;;;;;;5070713;28;20198;-66
2023/05/06 07:19:58;;;;;;;4.47;4.18;;;22.50;99.90;;;;;;5071031;28;20216;-66
2023/05/06 07:22:24;;;;;;;5.93;5.53;;;22.90;99.90;;;;;;5071693;28;20170;-66
2023/05/06 07:24:49;;;;;;;5.22;4.75;;;23.10;99.90;;;;;;5071329;28;20231;-67
2023/05/06 07:27:15;;;;;;;4.35;4.07;;;23.10;99.90;;;;;;5070629;28;20397;-66
2023/05/06 07:29:41;;;;;;;4.47;4.18;;;23.00;99.90;;;;;;5070919;28;20174;-66
2023/05/06 07:32:06;;;;;;;4.30;4.10;;;23.10;99.90;;;;;;5071006;28;20205;-66
2023/05/06 07:34:33;;;;;;;4.68;4.38;;;23.00;99.90;;;;;;5071255;28;20249;-66
2023/05/06 07:36:59;;;;;;;3.65;3.45;;;23.10;99.90;;;;;;5071141;28;20199;-66
2023/05/06 07:39:24;;;;;;;4.20;3.90;;;23.10;99.90;;;;;;5069651;28;20266;-66
2023/05/06 07:41:50;;;;;;;3.85;3.65;;;23.20;99.90;;;;;;5071180;28;20177;-66
2023/05/06 07:44:16;;;;;;;4.57;4.20;;;23.30;99.90;;;;;;5071259;28;20664;-66
2023/05/06 07:46:41;;;;;;;4.05;3.85;;;23.60;99.90;;;;;;5070990;28;20186;-66
2023/05/06 07:49:07;;;;;;;4.80;4.50;;;24.10;99.90;;;;;;5070834;28;20308;-66
2023/05/06 07:51:33;;;;;;;4.13;3.92;;;24.20;99.90;;;;;;5071176;28;20654;-66
2023/05/06 07:53:58;;;;;;;4.22;4.00;;;24.50;99.90;;;;;;5069664;28;20202;-66
2023/05/06 07:56:24;;;;;;;4.78;4.57;;;24.90;99.90;;;;;;5071019;28;20530;-66
2023/05/06 07:58:49;;;;;;;4.95;4.68;;;24.90;99.90;;;;;;5070970;28;20174;-66
2023/05/06 08:01:15;;;;;;;4.47;4.07;;;25.00;99.90;;;;;;5070608;28;20170;-66
2023/05/06 08:03:42;;;;;;;3.55;3.35;;;25.10;99.90;;;;;;5071086;28;20170;-65
2023/05/06 08:06:08;;;;;;;3.45;3.28;;;25.40;99.90;;;;;;5071114;28;20206;-66
2023/05/06 08:08:33;;;;;;;3.97;3.78;;;25.70;99.90;;;;;;5069731;28;20539;-65
2023/05/06 08:10:59;;;;;;;3.55;3.35;;;26.10;99.90;;;;;;5070496;28;20174;-64
2023/05/06 08:13:26;;;;;;;3.80;3.60;;;26.20;99.90;;;;;;5070754;28;20663;-66
2023/05/06 08:15:53;;;;;;;3.25;3.15;;;26.50;99.90;;;;;;5070796;28;20585;-66
2023/05/06 08:18:18;;;;;;;3.13;3.03;;;26.80;99.90;;;;;;5073393;28;20258;-66
2023/05/06 08:20:44;;;;;;;3.50;3.30;;;27.10;99.90;;;;;;5074130;28;20248;-66
2023/05/06 08:23:10;;;;;;;3.90;3.60;;;27.50;99.90;;;;;;5074531;28;20254;-66
2023/05/06 08:25:35;;;;;;;4.82;4.63;;;27.60;99.90;;;;;;5074204;28;20200;-65
2023/05/06 08:28:01;;;;;;;3.97;3.78;;;27.20;99.90;;;;;;5074202;28;20261;-66
2023/05/06 08:30:27;;;;;;;3.60;3.40;;;26.70;99.90;;;;;;5073979;28;20253;-66
2023/05/06 08:32:53;;;;;;;3.03;2.83;;;26.50;99.90;;;;;;5074102;28;20235;-66
2023/05/06 08:35:18;;;;;;;3.00;2.85;;;26.30;99.90;;;;;;5074069;28;20205;-65
2023/05/06 08:37:44;;;;;;;3.53;3.33;;;26.30;99.90;;;;;;5074147;28;20303;-66
2023/05/06 08:40:19;;;;;;;4.10;3.90;;;26.60;99.90;;;;;;5073826;28;20166;-65
2023/05/06 08:42:46;;;;;;;4.50;4.30;;;27.00;99.90;;;;;;5074045;28;20653;-65
2023/05/06 08:45:13;;;;;;;6.65;6.35;;;27.10;99.90;;;;;;5074156;28;20324;-65
2023/05/06 08:47:40;;;;;;;9.88;9.45;;;27.20;99.90;;;;;;5073841;28;20239;-65
2023/05/06 08:50:06;;;;;;;5.57;5.22;;;27.40;99.90;;;;;;5073615;28;20166;-65
2023/05/06 08:52:33;;;;;;;5.22;4.93;;;27.70;99.90;;;;;;5074013;28;20582;-66
2023/05/06 08:55:03;;;;;;;3.78;3.58;;;27.90;99.90;;;;;;5073543;28;20784;-66
2023/05/06 08:57:30;;;;;;;4.15;3.95;;;28.10;99.90;;;;;;5073657;28;20270;-65
2023/05/06 08:59:56;;;;;;;2.83;2.65;;;28.30;99.90;;;;;;5073208;28;20640;-66
2023/05/06 09:02:21;;;;;;;3.83;3.63;;;28.90;99.90;;;;;;5073791;28;20180;-66
2023/05/06 09:04:48;;;;;;;2.88;2.78;;;29.60;99.90;;;;;;5073443;28;20253;-66
2023/05/06 09:07:14;;;;;;;4.20;4.00;;;29.80;99.90;;;;;;5074002;28;20652;-65
2023/05/06 09:09:40;;;;;;;3.35;3.15;;;29.70;99.90;;;;;;5071847;28;20212;-65
2023/05/06 09:12:14;;;;;;;2.80;2.70;;;29.10;99.90;;;;;;5073356;28;20599;-66
2023/05/06 09:14:41;;;;;;;2.88;2.78;;;28.70;99.90;;;;;;5073386;28;20212;-65
2023/05/06 09:17:25;;;;;;;3.13;3.03;;;28.60;99.90;;;;;;5072855;28;20193;-65
2023/05/06 09:19:52;;;;;;;3.22;3.13;;;28.50;99.90;;;;;;5073075;28;20216;-65
2023/05/06 09:22:20;;;;;;;3.33;3.13;;;28.10;99.90;;;;;;5073373;28;20181;-66
2023/05/06 09:24:46;;;;;;;4.55;4.35;;;28.10;99.90;;;;;;5073129;28;20166;-66
2023/05/06 09:27:12;;;;;;;4.25;4.05;;;27.90;99.90;;;;;;5073278;28;20166;-66
2023/05/06 09:29:37;;;;;;;3.15;2.90;;;27.60;99.90;;;;;;5072608;28;20170;-65
2023/05/06 09:32:06;;;;;;;2.95;2.80;;;27.10;99.90;;;;;;5073051;28;20253;-66
2023/05/06 09:34:32;;;;;;;2.55;2.45;;;27.00;99.90;;;;;;5073090;28;20706;-66
2023/05/06 09:36:58;;;;;;;3.03;2.92;;;27.20;99.90;;;;;;5071833;28;20202;-65
2023/05/06 09:39:26;;;;;;;2.60;2.50;;;27.40;99.90;;;;;;5072639;28;20181;-66
2023/05/06 09:41:53;;;;;;;3.05;2.85;;;27.60;99.90;;;;;;5072788;28;20535;-66
2023/05/06 09:44:21;;;;;;;3.58;3.38;;;27.80;99.90;;;;;;5072906;28;20182;-65
2023/05/06 09:46:47;;;;;;;3.13;2.92;;;27.80;99.90;;;;;;5072673;28;20186;-66
2023/05/06 09:49:14;;;;;;;3.17;3.08;;;27.80;99.90;;;;;;5072801;28;20170;-65
2023/05/06 09:51:46;;;;;;;2.97;2.78;;;27.70;99.90;;;;;;5072647;28;20198;-65
2023/05/06 09:54:14;;;;;;;3.05;2.95;;;27.50;99.90;;;;;;5072807;28;20201;-65
2023/05/06 09:56:41;;;;;;;2.53;2.42;;;27.50;99.90;;;;;;5072610;28;20277;-65
2023/05/06 09:59:07;;;;;;;2.88;2.78;;;28.00;99.90;;;;;;5072319;28;20220;-65
2023/05/06 10:01:34;;;;;;;3.33;3.22;;;28.50;99.90;;;;;;5072306;28;20243;-65
2023/05/06 10:04:03;;;;;;;4.55;4.25;;;28.30;99.90;;;;;;5072379;28;20178;-64
2023/05/06 10:06:31;;;;;;;3.40;3.20;;;28.00;99.90;;;;;;5072470;28;20198;-65
2023/05/06 10:08:58;;;;;;;4.63;4.43;;;27.90;99.90;;;;;;5072475;28;20750;-64
2023/05/06 10:11:25;;;;;;;3.13;2.92;;;27.80;99.90;;;;;;5071998;28;20771;-65
2023/05/06 10:13:51;;;;;;;3.20;3.00;;;28.20;99.90;;;;;;5072249;28;20700;-66
2023/05/06 10:16:18;;;;;;;3.47;3.38;;;28.40;99.90;;;;;;5071614;28;20186;-65
2023/05/06 10:18:45;;;;;;;3.67;3.47;;;28.30;99.90;;;;;;5072190;28;20166;-65
2023/05/06 10:21:17;;;;;;;4.03;3.85;;;28.30;99.90;;;;;;5071897;28;20174;-65
2023/05/06 10:23:51;;;;;;;4.45;4.25;;;28.70;99.90;;;;;;5071978;28;20173;-65
2023/05/06 10:26:18;;;;;;;4.10;3.90;;;29.30;99.90;;;;;;5072385;28;20517;-64
2023/05/06 10:28:49;;;;;;;3.13;3.03;;;29.70;99.90;;;;;;5072028;28;20573;-64
2023/05/06 10:31:15;;;;;;;4.25;4.05;;;30.20;99.90;;;;;;5084040;28;20658;-65
2023/05/06 10:33:44;;;;;;;2.80;2.70;;;30.20;99.90;;;;;;5091881;28;20256;-65
2023/05/06 10:36:19;;;;;;;3.42;3.22;;;29.90;99.90;;;;;;5091950;28;20189;-65
2023/05/06 10:38:49;;;;;;;3.10;3.00;;;29.70;99.90;;;;;;5091886;28;20234;-65
2023/05/06 10:41:16;;;;;;;5.15;4.88;;;29.90;99.90;;;;;;5091202;28;20185;-65
2023/05/06 10:43:42;;;;;;;3.75;3.45;;;29.60;99.90;;;;;;5091701;28;20169;-66
2023/05/06 10:46:09;;;;;;;5.32;5.13;;;29.50;99.90;;;;;;5091734;28;20191;-65
2023/05/06 10:48:37;;;;;;;3.47;3.38;;;29.50;99.90;;;;;;5091877;28;20547;-65
2023/05/06 10:51:20;;;;;;;4.10;3.90;;;29.20;99.90;;;;;;5091550;28;20672;-65
2023/05/06 10:54:05;;;;;;;3.92;3.72;;;28.80;99.90;;;;;;5086997;28;20173;-65
2023/05/06 10:57:03;;;;;;;6.95;6.65;;;28.10;99.90;;;;;;5088483;28;20251;-65
2023/05/06 10:59:30;;;;;;;3.28;3.08;;;27.80;99.90;;;;;;5071340;28;20190;-65
2023/05/06 11:02:07;;;;;;;2.80;2.60;;;27.60;99.90;;;;;;5071251;28;20628;-64
2023/05/06 11:04:33;;;;;;;3.22;3.10;;;27.60;99.90;;;;;;5077952;28;20281;-65
2023/05/06 11:07:13;;;;;;;3.25;3.15;;;27.70;99.90;;;;;;5091200;28;20245;-65
2023/05/06 11:09:57;;;;;;;3.38;3.25;;;27.90;99.90;;;;;;5083032;28;20185;-65
2023/05/06 11:12:45;;;;;;;3.40;3.30;;;28.30;99.90;;;;;;5070765;28;20226;-65
2023/05/06 11:15:40;;;;;;;4.18;3.97;;;28.20;99.90;;;;;;5080424;28;20267;-65
2023/05/06 11:18:35;;;;;;;3.67;3.47;;;28.30;99.90;;;;;;5090835;28;20173;-65
2023/05/06 11:21:01;;;;;;;3.38;3.17;;;28.30;99.90;;;;;;5063461;28;20186;-65
2023/05/06 11:23:53;;;;;;;5.38;5.18;;;28.50;99.90;;;;;;5070159;28;20177;-65
2023/05/06 11:26:19;;;;;;;6.10;5.80;;;29.20;99.90;;;;;;5070802;28;20241;-65
2023/05/06 11:28:46;;;;;;;4.18;3.97;;;29.70;99.90;;;;;;5086117;28;20208;-64
2023/05/06 11:31:13;;;;;;;3.40;3.08;;;29.60;99.90;;;;;;5089985;28;20514;-65
2023/05/06 11:33:45;;;;;;;3.72;3.47;;;29.40;99.90;;;;;;5091231;28;20264;-65
2023/05/06 11:36:16;;;;;;;4.53;4.25;;;29.30;99.90;;;;;;5089546;28;20670;-64
2023/05/06 11:38:47;;;;;;;3.42;3.22;;;29.20;99.90;;;;;;5090805;28;20177;-64
2023/05/06 11:41:14;;;;;;;3.25;3.05;;;29.40;99.90;;;;;;5071834;28;20171;-64
2023/05/06 11:43:51;;;;;;;3.75;3.55;;;29.60;99.90;;;;;;5070878;28;20166;-65
2023/05/06 11:46:21;;;;;;;5.50;5.30;;;29.90;99.90;;;;;;5072130;28;20244;-65
2023/05/06 11:48:47;;;;;;;3.88;3.67;;;30.10;99.90;;;;;;5070639;28;20170;-64
2023/05/06 11:51:12;;;;;;;3.63;3.45;;;29.90;99.90;;;;;;5089455;28;20185;-65
2023/05/06 11:53:38;;;;;;;3.88;3.67;;;29.80;99.90;;;;;;5094986;28;20216;-64
2023/05/06 11:56:07;;;;;;;3.85;3.53;;;29.90;99.90;;;;;;5078281;28;20280;-64
2023/05/06 11:58:33;;;;;;;3.05;2.95;;;30.20;99.90;;;;;;5076044;28;20182;-64
2023/05/06 12:01:00;;;;;;;2.97;2.88;;;30.10;99.90;;;;;;5074115;28;20186;-65
2023/05/06 12:03:27;;;;;;;3.08;2.97;;;29.40;99.90;;;;;;5077137;28;20196;-64
2023/05/06 12:05:53;;;;;;;8.73;8.23;;;28.80;99.90;;;;;;5094698;28;20212;-64
2023/05/06 12:08:24;;;;;;;2.92;2.83;;;27.80;99.90;;;;;;5093305;28;20172;-65
2023/05/06 12:10:51;;;;;;;2.83;2.72;;;27.10;99.90;;;;;;5074017;28;20178;-65
2023/05/06 12:13:18;;;;;;;4.20;4.00;;;26.80;99.90;;;;;;5085573;28;20546;-64
2023/05/06 12:15:45;;;;;;;2.97;2.88;;;27.00;99.90;;;;;;5094335;28;20201;-65
2023/05/06 12:18:11;;;;;;;3.42;3.22;;;27.40;99.90;;;;;;5084730;28;20189;-64
2023/05/06 12:20:37;;;;;;;4.20;4.00;;;27.70;99.90;;;;;;5073853;28;20172;-64
2023/05/06 12:23:13;;;;;;;5.70;5.50;;;28.20;99.90;;;;;;5082189;28;20264;-64
2023/05/06 12:25:41;;;;;;;4.95;4.75;;;28.50;99.90;;;;;;5094458;28;20197;-65
2023/05/06 12:28:18;;;;;;;3.83;3.63;;;28.80;99.90;;;;;;5086094;28;20182;-64
2023/05/06 12:30:44;;;;;;;3.22;3.03;;;28.80;99.90;;;;;;5073572;28;20785;-64
2023/05/06 12:33:10;;;;;;;3.45;3.35;;;28.80;99.90;;;;;;5085176;28;20257;-65
2023/05/06 12:35:37;;;;;;;3.10;3.00;;;28.70;99.90;;;;;;5075799;28;20209;-65
2023/05/06 12:38:09;;;;;;;4.22;4.03;;;28.60;99.90;;;;;;5085749;28;20635;-65
2023/05/06 12:40:35;;;;;;;3.85;3.65;;;28.50;99.90;;;;;;5073737;28;20182;-64
2023/05/06 12:43:01;;;;;;;8.52;8.18;;;28.30;99.90;;;;;;5073907;28;20173;-64
2023/05/06 12:45:26;;;;;;;3.47;3.28;;;28.10;99.90;;;;;;5073774;28;20197;-64